sensor_id;sensor_type;location;lat;lon;timestamp;temperature;humidity
22568;DHT22;11450;50.818;4.382;2022-08-19T00:02:04;22.50;99.90
22568;DHT22;11450;50.818;4.382;2022-08-19T00:04:58;22.40;99.90
22568;DHT22;11450;50.818;4.382;2022-08-19T00:07:23;22.40;99.90
22568;DHT22;11450;50.818;4.382;2022-08-19T00:09:49;22.30;99.90
22568;DHT22;11450;50.818;4.382;2022-08-19T00:12:14;22.20;99.90
22568;DHT22;11450;50.818;4.382;2022-08-19T00:14:41;22.20;99.90
22568;DHT22;11450;50.818;4.382;2022-08-19T00:17:07;22.10;99.90
22568;DHT22;11450;50.818;4.382;2022-08-19T00:19:35;22.00;99.90
22568;DHT22;11450;50.818;4.382;2022-08-19T00:22:01;22.00;99.90
22568;DHT22;11450;50.818;4.382;2022-08-19T00:24:28;21.80;99.90
22568;DHT22;11450;50.818;4.382;2022-08-19T00:26:55;21.60;99.90
22568;DHT22;11450;50.818;4.382;2022-08-19T00:29:23;21.70;99.90
22568;DHT22;11450;50.818;4.382;2022-08-19T00:31:50;21.60;99.90
22568;DHT22;11450;50.818;4.382;2022-08-19T00:34:21;21.50;99.90
22568;DHT22;11450;50.818;4.382;2022-08-19T00:36:47;21.50;99.90
22568;DHT22;11450;50.818;4.382;2022-08-19T00:39:15;21.60;99.90
22568;DHT22;11450;50.818;4.382;2022-08-19T00:41:43;21.40;99.90
22568;DHT22;11450;50.818;4.382;2022-08-19T00:46:46;21.40;99.90
22568;DHT22;11450;50.818;4.382;2022-08-19T00:49:14;21.40;99.90
22568;DHT22;11450;50.818;4.382;2022-08-19T00:51:42;21.40;99.90
22568;DHT22;11450;50.818;4.382;2022-08-19T00:54:09;21.50;99.90
22568;DHT22;11450;50.818;4.382;2022-08-19T00:56:35;21.40;99.90
22568;DHT22;11450;50.818;4.382;2022-08-19T00:59:03;21.20;99.90
22568;DHT22;11450;50.818;4.382;2022-08-19T01:01:39;21.10;99.90
22568;DHT22;11450;50.818;4.382;2022-08-19T01:04:05;21.10;99.90
22568;DHT22;11450;50.818;4.382;2022-08-19T01:06:31;21.00;99.90
22568;DHT22;11450;50.818;4.382;2022-08-19T01:08:58;21.10;99.90
22568;DHT22;11450;50.818;4.382;2022-08-19T01:11:25;21.10;99.90
22568;DHT22;11450;50.818;4.382;2022-08-19T01:13:52;21.00;99.90
22568;DHT22;11450;50.818;4.382;2022-08-19T01:16:20;21.10;99.90
22568;DHT22;11450;50.818;4.382;2022-08-19T01:18:46;21.10;99.90
22568;DHT22;11450;50.818;4.382;2022-08-19T01:21:20;21.10;99.90
22568;DHT22;11450;50.818;4.382;2022-08-19T01:23:47;21.20;99.90
22568;DHT22;11450;50.818;4.382;2022-08-19T01:26:22;21.20;99.90
22568;DHT22;11450;50.818;4.382;2022-08-19T01:28:51;21.10;99.90
22568;DHT22;11450;50.818;4.382;2022-08-19T01:31:24;21.10;99.90
22568;DHT22;11450;50.818;4.382;2022-08-19T01:33:51;21.10;99.90
22568;DHT22;11450;50.818;4.382;2022-08-19T01:36:47;21.00;99.90
22568;DHT22;11450;50.818;4.382;2022-08-19T01:39:18;20.90;99.90
22568;DHT22;11450;50.818;4.382;2022-08-19T01:41:45;20.90;99.90
22568;DHT22;11450;50.818;4.382;2022-08-19T01:44:11;20.70;99.90
22568;DHT22;11450;50.818;4.382;2022-08-19T01:46:37;20.70;99.90
22568;DHT22;11450;50.818;4.382;2022-08-19T01:49:03;20.70;99.90
22568;DHT22;11450;50.818;4.382;2022-08-19T01:51:30;20.60;99.90
22568;DHT22;11450;50.818;4.382;2022-08-19T01:53:56;20.60;99.90
22568;DHT22;11450;50.818;4.382;2022-08-19T01:56:23;20.60;99.90
22568;DHT22;11450;50.818;4.382;2022-08-19T01:58:55;20.60;99.90
22568;DHT22;11450;50.818;4.382;2022-08-19T02:01:23;20.60;99.90
22568;DHT22;11450;50.818;4.382;2022-08-19T02:03:50;20.70;99.90
22568;DHT22;11450;50.818;4.382;2022-08-19T02:06:19;20.60;99.90
22568;DHT22;11450;50.818;4.382;2022-08-19T02:08:45;20.60;99.90
22568;DHT22;11450;50.818;4.382;2022-08-19T02:11:22;20.60;99.90
22568;DHT22;11450;50.818;4.382;2022-08-19T02:13:48;20.40;99.90
22568;DHT22;11450;50.818;4.382;2022-08-19T02:16:16;20.30;99.90
22568;DHT22;11450;50.818;4.382;2022-08-19T02:18:41;20.30;99.90
22568;DHT22;11450;50.818;4.382;2022-08-19T02:24:29;20.30;99.90
22568;DHT22;11450;50.818;4.382;2022-08-19T02:26:55;20.30;99.90
22568;DHT22;11450;50.818;4.382;2022-08-19T02:29:21;20.30;99.90
22568;DHT22;11450;50.818;4.382;2022-08-19T02:31:47;20.40;99.90
22568;DHT22;11450;50.818;4.382;2022-08-19T02:34:13;20.20;99.90
22568;DHT22;11450;50.818;4.382;2022-08-19T02:36:38;20.20;99.90
22568;DHT22;11450;50.818;4.382;2022-08-19T02:39:04;20.20;99.90
22568;DHT22;11450;50.818;4.382;2022-08-19T02:41:32;20.30;99.90
22568;DHT22;11450;50.818;4.382;2022-08-19T02:43:59;20.20;99.90
22568;DHT22;11450;50.818;4.382;2022-08-19T02:46:28;20.20;99.90
22568;DHT22;11450;50.818;4.382;2022-08-19T02:48:56;20.10;99.90
22568;DHT22;11450;50.818;4.382;2022-08-19T02:51:27;20.10;99.90
22568;DHT22;11450;50.818;4.382;2022-08-19T02:53:54;20.10;99.90
22568;DHT22;11450;50.818;4.382;2022-08-19T02:56:20;20.20;99.90
22568;DHT22;11450;50.818;4.382;2022-08-19T02:58:47;20.10;99.90
22568;DHT22;11450;50.818;4.382;2022-08-19T03:01:33;20.10;99.90
22568;DHT22;11450;50.818;4.382;2022-08-19T03:04:02;20.10;99.90
22568;DHT22;11450;50.818;4.382;2022-08-19T03:06:29;20.00;99.90
22568;DHT22;11450;50.818;4.382;2022-08-19T03:08:55;20.00;99.90
22568;DHT22;11450;50.818;4.382;2022-08-19T03:11:29;20.00;99.90
22568;DHT22;11450;50.818;4.382;2022-08-19T03:13:55;20.00;99.90
22568;DHT22;11450;50.818;4.382;2022-08-19T03:16:24;20.00;99.90
22568;DHT22;11450;50.818;4.382;2022-08-19T03:18:50;19.90;99.90
22568;DHT22;11450;50.818;4.382;2022-08-19T03:21:18;20.00;99.90
22568;DHT22;11450;50.818;4.382;2022-08-19T03:23:45;19.90;99.90
22568;DHT22;11450;50.818;4.382;2022-08-19T03:26:10;19.90;99.90
22568;DHT22;11450;50.818;4.382;2022-08-19T03:28:36;20.00;99.90
22568;DHT22;11450;50.818;4.382;2022-08-19T03:31:12;19.90;99.90
22568;DHT22;11450;50.818;4.382;2022-08-19T03:33:38;19.80;99.90
22568;DHT22;11450;50.818;4.382;2022-08-19T03:36:11;19.80;99.90
22568;DHT22;11450;50.818;4.382;2022-08-19T03:38:42;19.80;99.90
22568;DHT22;11450;50.818;4.382;2022-08-19T03:41:10;19.80;99.90
22568;DHT22;11450;50.818;4.382;2022-08-19T03:43:38;19.70;99.90
22568;DHT22;11450;50.818;4.382;2022-08-19T03:46:08;19.80;99.90
22568;DHT22;11450;50.818;4.382;2022-08-19T03:48:35;19.80;99.90
22568;DHT22;11450;50.818;4.382;2022-08-19T03:51:02;19.70;99.90
22568;DHT22;11450;50.818;4.382;2022-08-19T03:53:29;19.80;99.90
22568;DHT22;11450;50.818;4.382;2022-08-19T03:55:55;19.80;99.90
22568;DHT22;11450;50.818;4.382;2022-08-19T03:58:22;19.80;99.90
22568;DHT22;11450;50.818;4.382;2022-08-19T04:00:49;19.70;99.90
22568;DHT22;11450;50.818;4.382;2022-08-19T04:03:15;19.70;99.90
22568;DHT22;11450;50.818;4.382;2022-08-19T04:05:41;19.70;99.90
22568;DHT22;11450;50.818;4.382;2022-08-19T04:08:06;19.70;99.90
22568;DHT22;11450;50.818;4.382;2022-08-19T04:10:36;19.70;99.90
22568;DHT22;11450;50.818;4.382;2022-08-19T04:13:03;19.70;99.90
22568;DHT22;11450;50.818;4.382;2022-08-19T04:15:31;19.70;99.90
22568;DHT22;11450;50.818;4.382;2022-08-19T04:18:01;19.70;99.90
22568;DHT22;11450;50.818;4.382;2022-08-19T04:20:26;19.60;99.90
22568;DHT22;11450;50.818;4.382;2022-08-19T04:22:52;19.40;99.90
22568;DHT22;11450;50.818;4.382;2022-08-19T04:25:18;19.40;99.90
22568;DHT22;11450;50.818;4.382;2022-08-19T04:27:43;19.40;99.90
22568;DHT22;11450;50.818;4.382;2022-08-19T04:30:13;19.40;99.90
22568;DHT22;11450;50.818;4.382;2022-08-19T04:32:39;19.20;99.90
22568;DHT22;11450;50.818;4.382;2022-08-19T04:35:05;19.20;99.90
22568;DHT22;11450;50.818;4.382;2022-08-19T04:37:30;19.20;99.90
22568;DHT22;11450;50.818;4.382;2022-08-19T04:39:58;19.20;99.90
22568;DHT22;11450;50.818;4.382;2022-08-19T04:42:43;19.20;99.90
22568;DHT22;11450;50.818;4.382;2022-08-19T04:45:11;19.10;99.90
22568;DHT22;11450;50.818;4.382;2022-08-19T04:47:40;19.10;99.90
22568;DHT22;11450;50.818;4.382;2022-08-19T04:50:07;19.00;99.90
22568;DHT22;11450;50.818;4.382;2022-08-19T04:52:33;19.00;99.90
22568;DHT22;11450;50.818;4.382;2022-08-19T04:54:59;19.00;99.90
22568;DHT22;11450;50.818;4.382;2022-08-19T04:57:25;18.90;99.90
22568;DHT22;11450;50.818;4.382;2022-08-19T04:59:56;19.00;99.90
22568;DHT22;11450;50.818;4.382;2022-08-19T05:02:22;19.00;99.90
22568;DHT22;11450;50.818;4.382;2022-08-19T05:04:56;18.90;99.90
22568;DHT22;11450;50.818;4.382;2022-08-19T05:07:22;19.00;99.90
22568;DHT22;11450;50.818;4.382;2022-08-19T05:09:48;19.10;99.90
22568;DHT22;11450;50.818;4.382;2022-08-19T05:12:14;19.10;99.90
22568;DHT22;11450;50.818;4.382;2022-08-19T05:14:39;19.00;99.90
22568;DHT22;11450;50.818;4.382;2022-08-19T05:17:05;18.90;99.90
22568;DHT22;11450;50.818;4.382;2022-08-19T05:19:30;18.90;99.90
22568;DHT22;11450;50.818;4.382;2022-08-19T05:22:15;18.80;99.90
22568;DHT22;11450;50.818;4.382;2022-08-19T05:25:05;18.80;99.90
22568;DHT22;11450;50.818;4.382;2022-08-19T05:27:31;18.70;99.90
22568;DHT22;11450;50.818;4.382;2022-08-19T05:29:57;18.60;99.90
22568;DHT22;11450;50.818;4.382;2022-08-19T05:32:23;18.40;99.90
22568;DHT22;11450;50.818;4.382;2022-08-19T05:34:49;18.50;99.90
22568;DHT22;11450;50.818;4.382;2022-08-19T05:37:14;18.40;99.90
22568;DHT22;11450;50.818;4.382;2022-08-19T05:39:40;18.30;99.90
22568;DHT22;11450;50.818;4.382;2022-08-19T05:42:09;18.30;99.90
22568;DHT22;11450;50.818;4.382;2022-08-19T05:44:39;18.20;99.90
22568;DHT22;11450;50.818;4.382;2022-08-19T05:47:06;18.20;99.90
22568;DHT22;11450;50.818;4.382;2022-08-19T05:49:35;18.40;99.90
22568;DHT22;11450;50.818;4.382;2022-08-19T05:52:08;18.50;99.90
22568;DHT22;11450;50.818;4.382;2022-08-19T05:54:37;18.70;99.90
22568;DHT22;11450;50.818;4.382;2022-08-19T05:57:05;18.80;99.90
22568;DHT22;11450;50.818;4.382;2022-08-19T05:59:31;18.80;99.90
22568;DHT22;11450;50.818;4.382;2022-08-19T06:01:58;18.80;99.90
22568;DHT22;11450;50.818;4.382;2022-08-19T06:04:25;18.80;99.90
22568;DHT22;11450;50.818;4.382;2022-08-19T06:06:52;19.00;99.90
22568;DHT22;11450;50.818;4.382;2022-08-19T06:09:20;18.90;99.90
22568;DHT22;11450;50.818;4.382;2022-08-19T06:11:48;19.10;99.90
22568;DHT22;11450;50.818;4.382;2022-08-19T06:14:20;19.10;99.90
22568;DHT22;11450;50.818;4.382;2022-08-19T06:16:46;19.00;99.90
22568;DHT22;11450;50.818;4.382;2022-08-19T06:19:17;19.10;99.90
22568;DHT22;11450;50.818;4.382;2022-08-19T06:21:46;19.20;99.90
22568;DHT22;11450;50.818;4.382;2022-08-19T06:24:15;19.20;99.90
22568;DHT22;11450;50.818;4.382;2022-08-19T06:26:43;19.30;99.90
22568;DHT22;11450;50.818;4.382;2022-08-19T06:29:11;19.40;99.90
22568;DHT22;11450;50.818;4.382;2022-08-19T06:31:37;19.40;99.90
22568;DHT22;11450;50.818;4.382;2022-08-19T06:34:06;19.50;99.90
22568;DHT22;11450;50.818;4.382;2022-08-19T06:36:49;19.50;99.90
22568;DHT22;11450;50.818;4.382;2022-08-19T06:39:19;19.60;99.90
22568;DHT22;11450;50.818;4.382;2022-08-19T06:41:49;19.90;99.90
22568;DHT22;11450;50.818;4.382;2022-08-19T06:44:16;19.90;99.90
22568;DHT22;11450;50.818;4.382;2022-08-19T06:46:42;19.80;99.90
22568;DHT22;11450;50.818;4.382;2022-08-19T06:49:08;19.80;99.90
22568;DHT22;11450;50.818;4.382;2022-08-19T06:51:37;19.90;99.90
22568;DHT22;11450;50.818;4.382;2022-08-19T06:54:04;19.90;99.90
22568;DHT22;11450;50.818;4.382;2022-08-19T06:56:31;20.10;99.90
22568;DHT22;11450;50.818;4.382;2022-08-19T06:59:05;20.10;99.90
22568;DHT22;11450;50.818;4.382;2022-08-19T07:01:45;20.20;99.90
22568;DHT22;11450;50.818;4.382;2022-08-19T07:04:21;20.30;99.90
22568;DHT22;11450;50.818;4.382;2022-08-19T07:06:48;20.30;99.90
22568;DHT22;11450;50.818;4.382;2022-08-19T07:09:14;20.40;99.90
22568;DHT22;11450;50.818;4.382;2022-08-19T07:11:48;20.40;99.90
22568;DHT22;11450;50.818;4.382;2022-08-19T07:14:16;20.50;99.90
22568;DHT22;11450;50.818;4.382;2022-08-19T07:16:44;20.40;99.90
22568;DHT22;11450;50.818;4.382;2022-08-19T07:19:11;20.40;99.90
22568;DHT22;11450;50.818;4.382;2022-08-19T07:21:37;20.40;99.90
22568;DHT22;11450;50.818;4.382;2022-08-19T07:24:03;20.30;99.90
22568;DHT22;11450;50.818;4.382;2022-08-19T07:26:31;20.30;99.90
22568;DHT22;11450;50.818;4.382;2022-08-19T07:28:58;20.40;99.90
22568;DHT22;11450;50.818;4.382;2022-08-19T07:31:27;20.30;99.90
22568;DHT22;11450;50.818;4.382;2022-08-19T07:33:55;20.50;99.90
22568;DHT22;11450;50.818;4.382;2022-08-19T07:36:25;20.60;99.90
22568;DHT22;11450;50.818;4.382;2022-08-19T07:38:54;20.60;99.90
22568;DHT22;11450;50.818;4.382;2022-08-19T07:41:25;20.70;99.90
22568;DHT22;11450;50.818;4.382;2022-08-19T07:43:51;20.70;99.90
22568;DHT22;11450;50.818;4.382;2022-08-19T07:46:19;20.80;99.90
22568;DHT22;11450;50.818;4.382;2022-08-19T07:48:47;21.00;99.90
22568;DHT22;11450;50.818;4.382;2022-08-19T07:51:18;21.00;99.90
22568;DHT22;11450;50.818;4.382;2022-08-19T07:53:45;21.00;99.90
22568;DHT22;11450;50.818;4.382;2022-08-19T07:56:14;21.00;99.90
22568;DHT22;11450;50.818;4.382;2022-08-19T07:58:43;21.00;99.90
22568;DHT22;11450;50.818;4.382;2022-08-19T08:01:22;21.10;99.90
22568;DHT22;11450;50.818;4.382;2022-08-19T08:03:49;21.20;99.90
22568;DHT22;11450;50.818;4.382;2022-08-19T08:06:33;21.20;99.90
22568;DHT22;11450;50.818;4.382;2022-08-19T08:09:22;21.20;99.90
22568;DHT22;11450;50.818;4.382;2022-08-19T08:11:55;21.20;99.90
22568;DHT22;11450;50.818;4.382;2022-08-19T08:14:30;21.30;99.90
22568;DHT22;11450;50.818;4.382;2022-08-19T08:16:56;21.30;99.90
22568;DHT22;11450;50.818;4.382;2022-08-19T08:19:24;21.30;99.90
22568;DHT22;11450;50.818;4.382;2022-08-19T08:21:51;21.40;99.90
22568;DHT22;11450;50.818;4.382;2022-08-19T08:24:18;21.40;99.90
22568;DHT22;11450;50.818;4.382;2022-08-19T08:26:44;21.60;99.90
22568;DHT22;11450;50.818;4.382;2022-08-19T08:29:13;21.60;99.90
22568;DHT22;11450;50.818;4.382;2022-08-19T08:31:42;21.70;99.90
22568;DHT22;11450;50.818;4.382;2022-08-19T08:34:10;21.80;99.90
22568;DHT22;11450;50.818;4.382;2022-08-19T08:36:41;21.80;99.90
22568;DHT22;11450;50.818;4.382;2022-08-19T08:39:12;21.80;99.90
22568;DHT22;11450;50.818;4.382;2022-08-19T08:41:50;21.70;99.90
22568;DHT22;11450;50.818;4.382;2022-08-19T08:47:21;21.70;99.90
22568;DHT22;11450;50.818;4.382;2022-08-19T08:49:53;21.70;99.90
22568;DHT22;11450;50.818;4.382;2022-08-19T08:55:21;21.80;99.90
22568;DHT22;11450;50.818;4.382;2022-08-19T09:02:55;21.80;99.90
22568;DHT22;11450;50.818;4.382;2022-08-19T09:05:21;21.90;99.90
22568;DHT22;11450;50.818;4.382;2022-08-19T09:07:59;21.90;99.90
22568;DHT22;11450;50.818;4.382;2022-08-19T09:10:37;21.80;99.90
22568;DHT22;11450;50.818;4.382;2022-08-19T09:13:13;21.80;99.90
22568;DHT22;11450;50.818;4.382;2022-08-19T09:15:46;21.80;99.90
22568;DHT22;11450;50.818;4.382;2022-08-19T09:18:14;21.90;99.90
22568;DHT22;11450;50.818;4.382;2022-08-19T09:20:41;21.90;99.90
22568;DHT22;11450;50.818;4.382;2022-08-19T09:23:07;22.00;99.90
22568;DHT22;11450;50.818;4.382;2022-08-19T09:25:33;22.10;99.90
22568;DHT22;11450;50.818;4.382;2022-08-19T09:28:00;22.10;99.90
22568;DHT22;11450;50.818;4.382;2022-08-19T09:30:30;22.20;99.90
22568;DHT22;11450;50.818;4.382;2022-08-19T09:32:56;22.30;99.90
22568;DHT22;11450;50.818;4.382;2022-08-19T09:35:24;22.40;99.90
22568;DHT22;11450;50.818;4.382;2022-08-19T09:37:53;22.30;99.90
22568;DHT22;11450;50.818;4.382;2022-08-19T09:40:23;22.30;99.90
22568;DHT22;11450;50.818;4.382;2022-08-19T09:42:49;22.30;99.90
22568;DHT22;11450;50.818;4.382;2022-08-19T09:45:16;22.20;99.90
22568;DHT22;11450;50.818;4.382;2022-08-19T09:48:02;22.20;99.90
22568;DHT22;11450;50.818;4.382;2022-08-19T09:50:28;22.30;99.90
22568;DHT22;11450;50.818;4.382;2022-08-19T09:53:24;22.40;99.90
22568;DHT22;11450;50.818;4.382;2022-08-19T09:55:54;22.40;99.90
22568;DHT22;11450;50.818;4.382;2022-08-19T09:58:20;22.30;99.90
22568;DHT22;11450;50.818;4.382;2022-08-19T10:00:45;22.30;99.90
22568;DHT22;11450;50.818;4.382;2022-08-19T10:03:11;22.20;99.90
22568;DHT22;11450;50.818;4.382;2022-08-19T10:05:37;22.30;99.90
22568;DHT22;11450;50.818;4.382;2022-08-19T10:08:21;22.20;99.90
22568;DHT22;11450;50.818;4.382;2022-08-19T10:10:49;22.20;99.90
22568;DHT22;11450;50.818;4.382;2022-08-19T10:13:17;22.30;99.90
22568;DHT22;11450;50.818;4.382;2022-08-19T10:15:47;22.30;99.90
22568;DHT22;11450;50.818;4.382;2022-08-19T10:18:16;22.30;99.90
22568;DHT22;11450;50.818;4.382;2022-08-19T10:20:43;22.40;99.90
22568;DHT22;11450;50.818;4.382;2022-08-19T10:23:35;22.30;99.90
22568;DHT22;11450;50.818;4.382;2022-08-19T10:26:02;22.30;99.90
22568;DHT22;11450;50.818;4.382;2022-08-19T10:28:31;22.30;99.90
22568;DHT22;11450;50.818;4.382;2022-08-19T10:30:58;22.30;99.90
22568;DHT22;11450;50.818;4.382;2022-08-19T10:33:24;22.40;99.90
22568;DHT22;11450;50.818;4.382;2022-08-19T10:35:59;22.50;99.90
22568;DHT22;11450;50.818;4.382;2022-08-19T10:41:41;22.60;99.90
22568;DHT22;11450;50.818;4.382;2022-08-19T10:44:10;22.70;99.90
22568;DHT22;11450;50.818;4.382;2022-08-19T10:46:39;22.80;99.90
22568;DHT22;11450;50.818;4.382;2022-08-19T10:49:08;22.70;99.90
22568;DHT22;11450;50.818;4.382;2022-08-19T10:51:35;22.70;99.90
22568;DHT22;11450;50.818;4.382;2022-08-19T10:54:19;22.60;99.90
22568;DHT22;11450;50.818;4.382;2022-08-19T10:56:45;22.60;99.90
22568;DHT22;11450;50.818;4.382;2022-08-19T10:59:22;22.60;99.90
22568;DHT22;11450;50.818;4.382;2022-08-19T11:01:50;22.60;99.90
22568;DHT22;11450;50.818;4.382;2022-08-19T11:04:17;22.50;99.90
22568;DHT22;11450;50.818;4.382;2022-08-19T11:06:48;22.50;99.90
22568;DHT22;11450;50.818;4.382;2022-08-19T11:09:20;22.60;99.90
22568;DHT22;11450;50.818;4.382;2022-08-19T11:11:46;22.80;99.90
22568;DHT22;11450;50.818;4.382;2022-08-19T11:14:15;22.80;99.90
22568;DHT22;11450;50.818;4.382;2022-08-19T11:16:42;22.80;99.90
22568;DHT22;11450;50.818;4.382;2022-08-19T11:19:10;22.60;99.90
22568;DHT22;11450;50.818;4.382;2022-08-19T11:21:39;22.70;99.90
22568;DHT22;11450;50.818;4.382;2022-08-19T11:24:13;22.70;99.90
22568;DHT22;11450;50.818;4.382;2022-08-19T11:26:41;22.60;99.90
22568;DHT22;11450;50.818;4.382;2022-08-19T11:29:08;22.60;99.90
22568;DHT22;11450;50.818;4.382;2022-08-19T11:31:40;22.70;99.90
22568;DHT22;11450;50.818;4.382;2022-08-19T11:34:09;22.70;99.90
22568;DHT22;11450;50.818;4.382;2022-08-19T11:36:38;22.70;99.90
22568;DHT22;11450;50.818;4.382;2022-08-19T11:39:06;22.70;99.90
22568;DHT22;11450;50.818;4.382;2022-08-19T11:41:32;22.80;99.90
22568;DHT22;11450;50.818;4.382;2022-08-19T11:43:58;22.90;99.90
22568;DHT22;11450;50.818;4.382;2022-08-19T11:46:25;22.80;99.90
22568;DHT22;11450;50.818;4.382;2022-08-19T11:48:52;22.90;99.90
22568;DHT22;11450;50.818;4.382;2022-08-19T11:51:22;22.90;99.90
22568;DHT22;11450;50.818;4.382;2022-08-19T11:53:48;23.00;99.90
22568;DHT22;11450;50.818;4.382;2022-08-19T11:56:15;23.00;99.90
22568;DHT22;11450;50.818;4.382;2022-08-19T11:58:41;23.00;99.90
22568;DHT22;11450;50.818;4.382;2022-08-19T12:01:12;23.10;99.90
22568;DHT22;11450;50.818;4.382;2022-08-19T12:03:39;23.30;99.90
22568;DHT22;11450;50.818;4.382;2022-08-19T12:06:10;23.50;99.90
22568;DHT22;11450;50.818;4.382;2022-08-19T12:08:41;23.80;99.90
22568;DHT22;11450;50.818;4.382;2022-08-19T12:11:08;24.20;99.90
22568;DHT22;11450;50.818;4.382;2022-08-19T12:13:35;24.40;99.90
22568;DHT22;11450;50.818;4.382;2022-08-19T12:16:10;24.60;99.90
22568;DHT22;11450;50.818;4.382;2022-08-19T12:18:41;24.40;99.90
22568;DHT22;11450;50.818;4.382;2022-08-19T12:21:09;24.50;99.90
22568;DHT22;11450;50.818;4.382;2022-08-19T12:23:36;24.70;99.90
22568;DHT22;11450;50.818;4.382;2022-08-19T12:26:03;24.70;99.90
22568;DHT22;11450;50.818;4.382;2022-08-19T12:28:29;24.50;99.90
22568;DHT22;11450;50.818;4.382;2022-08-19T12:30:56;24.60;99.90
22568;DHT22;11450;50.818;4.382;2022-08-19T12:33:22;24.70;99.90
22568;DHT22;11450;50.818;4.382;2022-08-19T12:35:51;24.70;99.90
22568;DHT22;11450;50.818;4.382;2022-08-19T12:38:17;24.60;99.90
22568;DHT22;11450;50.818;4.382;2022-08-19T12:40:46;24.50;99.90
22568;DHT22;11450;50.818;4.382;2022-08-19T12:43:12;24.40;99.90
22568;DHT22;11450;50.818;4.382;2022-08-19T12:45:39;24.40;99.90
22568;DHT22;11450;50.818;4.382;2022-08-19T12:48:05;24.70;99.90
22568;DHT22;11450;50.818;4.382;2022-08-19T12:50:30;24.80;99.90
22568;DHT22;11450;50.818;4.382;2022-08-19T12:52:56;24.90;99.90
22568;DHT22;11450;50.818;4.382;2022-08-19T12:58:44;24.80;99.90
22568;DHT22;11450;50.818;4.382;2022-08-19T13:01:13;24.60;99.90
22568;DHT22;11450;50.818;4.382;2022-08-19T13:03:40;24.80;99.90
22568;DHT22;11450;50.818;4.382;2022-08-19T13:06:06;24.70;99.90
22568;DHT22;11450;50.818;4.382;2022-08-19T13:08:32;24.90;99.90
22568;DHT22;11450;50.818;4.382;2022-08-19T13:11:05;25.00;99.90
22568;DHT22;11450;50.818;4.382;2022-08-19T13:13:31;25.20;99.90
22568;DHT22;11450;50.818;4.382;2022-08-19T13:16:00;25.20;99.90
22568;DHT22;11450;50.818;4.382;2022-08-19T13:18:30;25.00;99.90
22568;DHT22;11450;50.818;4.382;2022-08-19T13:20:56;25.20;99.90
22568;DHT22;11450;50.818;4.382;2022-08-19T13:23:22;25.30;99.90
22568;DHT22;11450;50.818;4.382;2022-08-19T13:26:02;25.30;99.90
22568;DHT22;11450;50.818;4.382;2022-08-19T13:28:29;25.40;99.90
22568;DHT22;11450;50.818;4.382;2022-08-19T13:31:16;25.50;99.90
22568;DHT22;11450;50.818;4.382;2022-08-19T13:34:01;25.40;99.90
22568;DHT22;11450;50.818;4.382;2022-08-19T13:36:27;25.40;99.90
22568;DHT22;11450;50.818;4.382;2022-08-19T13:38:52;25.40;99.90
22568;DHT22;11450;50.818;4.382;2022-08-19T13:41:18;25.60;99.90
22568;DHT22;11450;50.818;4.382;2022-08-19T13:43:44;25.50;99.90
22568;DHT22;11450;50.818;4.382;2022-08-19T13:46:11;25.60;99.90
22568;DHT22;11450;50.818;4.382;2022-08-19T13:48:39;25.40;99.90
22568;DHT22;11450;50.818;4.382;2022-08-19T13:51:07;25.20;99.90
22568;DHT22;11450;50.818;4.382;2022-08-19T13:53:36;25.10;99.90
22568;DHT22;11450;50.818;4.382;2022-08-19T13:56:06;25.10;99.90
22568;DHT22;11450;50.818;4.382;2022-08-19T13:58:32;25.30;99.90
22568;DHT22;11450;50.818;4.382;2022-08-19T14:00:58;25.10;99.90
22568;DHT22;11450;50.818;4.382;2022-08-19T14:03:25;25.00;99.90
22568;DHT22;11450;50.818;4.382;2022-08-19T14:05:51;25.10;99.90
22568;DHT22;11450;50.818;4.382;2022-08-19T14:08:18;25.10;99.90
22568;DHT22;11450;50.818;4.382;2022-08-19T14:10:46;25.10;99.90
22568;DHT22;11450;50.818;4.382;2022-08-19T14:13:16;24.90;99.90
22568;DHT22;11450;50.818;4.382;2022-08-19T14:15:42;24.60;99.90
22568;DHT22;11450;50.818;4.382;2022-08-19T14:18:08;24.20;99.90
22568;DHT22;11450;50.818;4.382;2022-08-19T14:20:35;24.00;99.90
22568;DHT22;11450;50.818;4.382;2022-08-19T14:23:01;24.00;99.90
22568;DHT22;11450;50.818;4.382;2022-08-19T14:25:29;24.00;99.90
22568;DHT22;11450;50.818;4.382;2022-08-19T14:27:56;24.20;99.90
22568;DHT22;11450;50.818;4.382;2022-08-19T14:30:26;24.20;99.90
22568;DHT22;11450;50.818;4.382;2022-08-19T14:32:54;24.00;99.90
22568;DHT22;11450;50.818;4.382;2022-08-19T14:35:21;23.90;99.90
22568;DHT22;11450;50.818;4.382;2022-08-19T14:37:51;23.70;99.90
22568;DHT22;11450;50.818;4.382;2022-08-19T14:40:22;23.60;99.90
22568;DHT22;11450;50.818;4.382;2022-08-19T14:43:02;23.60;99.90
22568;DHT22;11450;50.818;4.382;2022-08-19T14:45:34;23.50;99.90
22568;DHT22;11450;50.818;4.382;2022-08-19T14:48:00;23.40;99.90
22568;DHT22;11450;50.818;4.382;2022-08-19T14:50:26;23.30;99.90
22568;DHT22;11450;50.818;4.382;2022-08-19T14:52:59;23.30;99.90
22568;DHT22;11450;50.818;4.382;2022-08-19T14:55:25;23.40;99.90
22568;DHT22;11450;50.818;4.382;2022-08-19T14:57:51;23.40;99.90
22568;DHT22;11450;50.818;4.382;2022-08-19T15:00:17;23.50;99.90
22568;DHT22;11450;50.818;4.382;2022-08-19T15:02:42;23.60;99.90
22568;DHT22;11450;50.818;4.382;2022-08-19T15:05:10;23.70;99.90
22568;DHT22;11450;50.818;4.382;2022-08-19T15:07:37;23.80;99.90
22568;DHT22;11450;50.818;4.382;2022-08-19T15:10:05;23.70;99.90
22568;DHT22;11450;50.818;4.382;2022-08-19T15:12:33;23.70;99.90
22568;DHT22;11450;50.818;4.382;2022-08-19T15:14:59;23.80;99.90
22568;DHT22;11450;50.818;4.382;2022-08-19T15:17:25;23.90;99.90
22568;DHT22;11450;50.818;4.382;2022-08-19T15:19:51;24.00;99.90
22568;DHT22;11450;50.818;4.382;2022-08-19T15:22:16;23.90;99.90
22568;DHT22;11450;50.818;4.382;2022-08-19T15:24:42;23.70;99.90
22568;DHT22;11450;50.818;4.382;2022-08-19T15:27:11;23.80;99.90
22568;DHT22;11450;50.818;4.382;2022-08-19T15:29:38;23.70;99.90
22568;DHT22;11450;50.818;4.382;2022-08-19T15:32:05;23.80;99.90
22568;DHT22;11450;50.818;4.382;2022-08-19T15:34:32;23.70;99.90
22568;DHT22;11450;50.818;4.382;2022-08-19T15:36:57;23.80;99.90
22568;DHT22;11450;50.818;4.382;2022-08-19T15:39:24;23.90;99.90
22568;DHT22;11450;50.818;4.382;2022-08-19T15:41:50;23.80;99.90
22568;DHT22;11450;50.818;4.382;2022-08-19T15:44:18;23.80;99.90
22568;DHT22;11450;50.818;4.382;2022-08-19T15:46:47;23.80;99.90
22568;DHT22;11450;50.818;4.382;2022-08-19T15:49:14;23.90;99.90
22568;DHT22;11450;50.818;4.382;2022-08-19T15:51:42;23.90;99.90
22568;DHT22;11450;50.818;4.382;2022-08-19T15:54:11;24.00;99.90
22568;DHT22;11450;50.818;4.382;2022-08-19T15:56:37;24.10;99.90
22568;DHT22;11450;50.818;4.382;2022-08-19T15:59:21;24.20;99.90
22568;DHT22;11450;50.818;4.382;2022-08-19T16:02:06;24.20;99.90
22568;DHT22;11450;50.818;4.382;2022-08-19T16:04:51;24.20;99.90